createdAt,value
2022-11-17T00:00:09.990Z,9.20
2022-11-17T00:02:37.146Z,9.50
2022-11-17T00:05:04.402Z,10.50
2022-11-17T00:07:31.013Z,12.70
2022-11-17T00:09:57.691Z,19.90
2022-11-17T00:12:28.406Z,23.30
2022-11-17T00:14:58.035Z,11.40
2022-11-17T00:17:24.479Z,5.80
2022-11-17T00:19:51.156Z,8.50
2022-11-17T00:23:01.808Z,8.20
2022-11-17T00:26:12.981Z,6.60
2022-11-17T00:28:39.573Z,3.30
2022-11-17T00:31:06.166Z,9.50
2022-11-17T00:33:32.818Z,6.40
2022-11-17T00:35:59.574Z,6.80
2022-11-17T00:38:26.100Z,5.30
2022-11-17T00:40:52.546Z,4.30
2022-11-17T00:43:18.988Z,4.20
2022-11-17T00:45:45.510Z,5.00
2022-11-17T00:48:12.052Z,5.40
2022-11-17T00:50:38.574Z,6.70
2022-11-17T00:53:05.235Z,4.40
2022-11-17T00:55:31.835Z,9.40
2022-11-17T00:57:58.403Z,4.80
2022-11-17T01:00:24.961Z,9.70
2022-11-17T01:02:51.492Z,5.50
2022-11-17T01:05:17.981Z,3.30
2022-11-17T01:07:44.619Z,7.90
2022-11-17T01:10:11.208Z,7.80
2022-11-17T01:12:37.706Z,4.50
2022-11-17T01:15:04.501Z,4.30
2022-11-17T01:17:31.145Z,5.00
2022-11-17T01:19:57.687Z,4.60
2022-11-17T01:22:24.241Z,5.70
2022-11-17T01:24:50.782Z,5.70
2022-11-17T01:27:17.309Z,3.80
2022-11-17T01:29:43.960Z,2.90
2022-11-17T01:32:10.452Z,3.30
2022-11-17T01:34:36.963Z,6.00
2022-11-17T01:37:03.399Z,6.20
2022-11-17T01:39:31.046Z,5.30
2022-11-17T01:41:58.512Z,3.60
2022-11-17T01:44:57.634Z,2.90
2022-11-17T01:47:28.519Z,6.80
2022-11-17T01:50:03.809Z,5.20
2022-11-17T01:52:32.905Z,9.30
2022-11-17T01:55:00.775Z,2.90
2022-11-17T01:57:32.097Z,7.60
2022-11-17T02:00:03.337Z,5.30
2022-11-17T02:02:30.851Z,2.80
2022-11-17T02:05:14.000Z,3.00
2022-11-17T02:07:43.105Z,2.80
2022-11-17T02:10:10.022Z,3.60
2022-11-17T02:12:37.272Z,4.30
2022-11-17T02:15:04.749Z,2.30
2022-11-17T02:17:44.112Z,3.50
2022-11-17T02:20:17.990Z,2.80
2022-11-17T02:22:47.499Z,4.70
2022-11-17T02:25:48.141Z,2.10
2022-11-17T02:28:36.384Z,1.90
2022-11-17T02:31:28.216Z,1.60
2022-11-17T02:34:04.693Z,2.90
2022-11-17T02:37:01.847Z,1.80
2022-11-17T02:39:56.654Z,2.00
2022-11-17T02:42:41.677Z,2.00
2022-11-17T02:45:11.608Z,2.70
2022-11-17T02:47:42.102Z,2.70
2022-11-17T02:50:11.229Z,2.90
2022-11-17T02:52:38.435Z,2.90
2022-11-17T02:55:08.064Z,3.60
2022-11-17T02:57:37.117Z,3.80
2022-11-17T03:00:15.815Z,3.60
2022-11-17T03:02:48.452Z,2.80
2022-11-17T03:05:43.298Z,2.60
2022-11-17T03:08:21.911Z,4.10
2022-11-17T03:10:58.300Z,3.10
2022-11-17T03:13:34.295Z,2.70
2022-11-17T03:16:24.563Z,2.60
2022-11-17T03:19:06.017Z,2.30
2022-11-17T03:21:40.886Z,2.50
2022-11-17T03:24:20.788Z,2.60
2022-11-17T03:26:52.894Z,2.50
2022-11-17T03:29:24.014Z,2.40
2022-11-17T03:31:57.045Z,2.00
2022-11-17T03:34:26.619Z,2.90
2022-11-17T03:37:00.393Z,2.10
2022-11-17T03:39:43.081Z,1.70
2022-11-17T03:42:27.444Z,1.90
2022-11-17T03:44:59.264Z,2.00
2022-11-17T03:47:28.359Z,1.30
2022-11-17T03:50:11.897Z,1.30
2022-11-17T03:52:38.950Z,1.40
2022-11-17T03:55:06.514Z,1.10
2022-11-17T03:57:41.554Z,1.10
2022-11-17T04:00:15.171Z,1.60
2022-11-17T04:02:46.923Z,1.40
2022-11-17T04:05:15.637Z,1.60
2022-11-17T04:07:47.069Z,1.70
2022-11-17T04:12:45.283Z,1.90
2022-11-17T04:15:12.319Z,1.60
2022-11-17T04:17:38.955Z,1.90
2022-11-17T04:20:06.128Z,1.90
2022-11-17T04:22:32.658Z,2.60
2022-11-17T04:24:59.258Z,2.30
2022-11-17T04:27:25.734Z,2.70
2022-11-17T04:29:52.176Z,2.70
2022-11-17T04:32:18.627Z,2.30
2022-11-17T04:34:45.248Z,2.90
2022-11-17T04:37:11.824Z,2.40
2022-11-17T04:39:38.437Z,2.40
2022-11-17T04:42:04.981Z,2.30
2022-11-17T04:44:32.844Z,2.60
2022-11-17T04:46:59.799Z,2.90
2022-11-17T04:49:26.740Z,2.30
2022-11-17T04:51:54.183Z,2.50
2022-11-17T04:54:23.106Z,2.20
2022-11-17T04:56:50.156Z,2.10
2022-11-17T04:59:17.091Z,5.50
2022-11-17T05:01:44.339Z,3.80
2022-11-17T05:04:13.270Z,3.20
2022-11-17T05:06:44.554Z,3.20
2022-11-17T05:09:16.595Z,3.00
2022-11-17T05:11:43.738Z,3.40
2022-11-17T05:14:11.303Z,12.00
2022-11-17T05:16:37.755Z,8.60
2022-11-17T05:19:07.451Z,15.50
2022-11-17T05:21:34.093Z,35.70
2022-11-17T05:24:00.552Z,41.40
2022-11-17T05:26:30.014Z,47.80
2022-11-17T05:28:58.577Z,8.50
2022-11-17T05:31:26.715Z,5.70
2022-11-17T05:33:53.855Z,5.70
2022-11-17T05:36:22.031Z,3.30
2022-11-17T05:38:49.305Z,3.60
2022-11-17T05:41:17.183Z,3.90
2022-11-17T05:43:44.416Z,3.20
2022-11-17T05:46:11.402Z,3.70
2022-11-17T05:48:38.421Z,5.10
2022-11-17T05:51:05.878Z,3.70
2022-11-17T05:53:33.095Z,3.40
2022-11-17T05:56:30.705Z,6.10
2022-11-17T05:59:29.319Z,5.40
2022-11-17T06:02:11.648Z,4.90
2022-11-17T06:04:39.416Z,4.40
2022-11-17T06:07:06.062Z,7.20
2022-11-17T06:09:37.053Z,7.30
2022-11-17T06:12:06.197Z,18.10
2022-11-17T06:14:34.255Z,4.60
2022-11-17T06:17:06.911Z,5.70
2022-11-17T06:19:40.265Z,2.90
2022-11-17T06:22:12.565Z,6.70
2022-11-17T06:24:41.792Z,2.80
2022-11-17T06:27:08.318Z,5.30
2022-11-17T06:29:38.194Z,7.00
2022-11-17T06:32:07.722Z,5.20
2022-11-17T06:34:35.111Z,9.80
2022-11-17T06:37:01.649Z,4.50
2022-11-17T06:39:28.088Z,2.80
2022-11-17T06:41:54.628Z,2.70
2022-11-17T06:44:21.168Z,2.00
2022-11-17T06:46:49.217Z,3.30
2022-11-17T06:49:16.102Z,7.90
2022-11-17T06:51:45.389Z,7.80
2022-11-17T06:54:12.745Z,4.40
2022-11-17T06:56:39.224Z,6.50
2022-11-17T06:59:06.038Z,3.00
2022-11-17T07:01:32.436Z,5.00
2022-11-17T07:03:58.868Z,6.10
2022-11-17T07:06:25.407Z,9.20
2022-11-17T07:08:51.908Z,6.00
2022-11-17T07:11:19.052Z,8.30
2022-11-17T07:13:45.496Z,14.30
2022-11-17T07:16:23.252Z,28.30
2022-11-17T07:18:50.381Z,6.80
2022-11-17T07:21:16.814Z,6.90
2022-11-17T07:23:43.706Z,4.70
2022-11-17T07:26:10.530Z,3.00
2022-11-17T07:28:37.233Z,5.20
2022-11-17T07:31:06.199Z,6.40
2022-11-17T07:33:33.368Z,9.20
2022-11-17T07:36:11.073Z,5.00
2022-11-17T07:38:39.666Z,2.80
2022-11-17T07:41:07.752Z,2.50
2022-11-17T07:43:35.175Z,3.00
2022-11-17T07:46:11.116Z,4.80
2022-11-17T07:48:38.312Z,3.70
2022-11-17T07:51:06.077Z,3.70
2022-11-17T07:53:33.599Z,3.90
2022-11-17T07:56:08.794Z,4.10
2022-11-17T07:58:36.470Z,4.90
2022-11-17T08:01:12.184Z,6.90
2022-11-17T08:03:38.757Z,7.60
2022-11-17T08:06:07.030Z,5.00
2022-11-17T08:08:34.311Z,2.70
2022-11-17T08:11:08.716Z,6.20
2022-11-17T08:13:35.739Z,4.00
2022-11-17T08:16:02.202Z,5.40
2022-11-17T08:18:29.234Z,8.30
2022-11-17T08:21:07.008Z,10.80
2022-11-17T08:23:33.868Z,12.30
2022-11-17T08:26:02.570Z,11.20
2022-11-17T08:28:30.319Z,3.80
2022-11-17T08:30:57.071Z,8.90
2022-11-17T08:33:23.692Z,7.20
2022-11-17T08:35:50.150Z,5.60
2022-11-17T08:38:16.900Z,6.20
2022-11-17T08:40:43.433Z,2.70
2022-11-17T08:43:09.824Z,5.70
2022-11-17T08:45:36.318Z,10.10
2022-11-17T08:48:02.952Z,10.60
2022-11-17T08:50:29.710Z,6.10
2022-11-17T08:52:56.245Z,3.90
2022-11-17T08:55:22.973Z,2.70
2022-11-17T08:57:49.535Z,4.80
2022-11-17T09:00:16.774Z,6.50
2022-11-17T09:02:43.156Z,5.10
2022-11-17T09:05:09.631Z,3.70
2022-11-17T09:07:36.183Z,3.80
2022-11-17T09:10:05.294Z,4.50
2022-11-17T09:12:32.026Z,3.70
2022-11-17T09:14:58.591Z,1.60
2022-11-17T09:17:25.117Z,1.80
2022-11-17T09:19:51.518Z,2.50
2022-11-17T09:22:17.988Z,5.30
2022-11-17T09:24:44.401Z,2.10
2022-11-17T09:27:10.825Z,7.00
2022-11-17T09:29:37.297Z,4.20
2022-11-17T09:32:03.818Z,7.20
2022-11-17T09:34:30.272Z,7.80
2022-11-17T09:36:56.817Z,5.10
2022-11-17T09:39:23.220Z,7.30
2022-11-17T09:41:53.142Z,8.30
2022-11-17T09:44:35.009Z,5.90
2022-11-17T09:47:13.439Z,10.80
2022-11-17T09:50:05.020Z,10.00
2022-11-17T09:52:53.589Z,6.50
2022-11-17T09:55:37.264Z,6.20
2022-11-17T09:58:44.709Z,4.60
2022-11-17T10:01:16.788Z,2.90
2022-11-17T10:03:46.316Z,3.00
2022-11-17T10:06:16.077Z,5.30
2022-11-17T10:09:01.082Z,7.00
2022-11-17T10:11:31.113Z,4.70
2022-11-17T10:14:10.444Z,4.20
2022-11-17T10:16:38.448Z,5.10
2022-11-17T10:19:21.560Z,6.30
2022-11-17T10:21:52.537Z,4.10
2022-11-17T10:24:37.736Z,5.40
2022-11-17T10:27:32.485Z,5.20
2022-11-17T10:30:03.982Z,5.00
2022-11-17T10:35:17.045Z,4.10
2022-11-17T10:38:19.169Z,7.60
2022-11-17T10:40:51.587Z,10.10
2022-11-17T10:43:24.020Z,9.30
2022-11-17T10:46:00.999Z,7.90
2022-11-17T10:48:33.787Z,7.50
2022-11-17T10:51:05.063Z,6.50
2022-11-17T10:53:44.458Z,5.70
2022-11-17T10:56:14.238Z,4.10
2022-11-17T10:59:12.901Z,5.20
2022-11-17T11:01:42.450Z,5.10
2022-11-17T11:04:33.407Z,3.30
2022-11-17T11:07:21.345Z,3.90
2022-11-17T11:10:04.502Z,3.50
2022-11-17T11:12:45.064Z,3.30
2022-11-17T11:15:19.168Z,2.90
2022-11-17T11:17:45.829Z,2.50
2022-11-17T11:20:17.975Z,2.70
2022-11-17T11:23:12.380Z,2.50
2022-11-17T11:25:51.832Z,2.90
2022-11-17T11:28:46.194Z,3.70
2022-11-17T11:32:10.282Z,5.20
2022-11-17T11:37:05.956Z,9.20
2022-11-17T11:39:54.421Z,4.20
2022-11-17T11:42:39.285Z,5.40
2022-11-17T11:45:41.720Z,4.30
2022-11-17T11:48:27.972Z,5.40
2022-11-17T11:51:02.091Z,4.20
2022-11-17T11:53:43.784Z,4.90
2022-11-17T11:56:15.237Z,4.80
2022-11-17T12:01:15.301Z,5.80
2022-11-17T12:04:06.197Z,4.70
2022-11-17T12:07:12.943Z,3.70
2022-11-17T12:10:04.851Z,4.90
2022-11-17T12:12:35.952Z,4.10
2022-11-17T12:15:20.885Z,5.00
2022-11-17T12:18:10.490Z,4.40
2022-11-17T12:20:36.960Z,6.70
2022-11-17T12:23:38.143Z,5.60
2022-11-17T12:26:05.392Z,5.90
2022-11-17T12:28:33.520Z,4.60
2022-11-17T12:31:20.968Z,5.20
2022-11-17T12:33:53.481Z,6.70
2022-11-17T12:36:31.436Z,5.30
2022-11-17T12:39:00.268Z,4.90
2022-11-17T12:41:48.679Z,5.00
2022-11-17T12:44:37.277Z,5.20
2022-11-17T12:47:22.213Z,5.80
2022-11-17T12:49:59.743Z,5.50
2022-11-17T12:52:46.381Z,8.10
2022-11-17T12:55:31.576Z,6.90
2022-11-17T12:58:28.079Z,7.70
2022-11-17T13:01:17.494Z,5.40
2022-11-17T13:03:52.847Z,5.60
2022-11-17T13:06:34.941Z,5.20
2022-11-17T13:09:13.009Z,6.10
2022-11-17T13:11:39.477Z,8.50
2022-11-17T13:14:17.124Z,5.40
2022-11-17T13:16:51.004Z,4.70
2022-11-17T13:19:44.205Z,4.90
2022-11-17T13:22:17.435Z,4.50
2022-11-17T13:24:49.338Z,5.20
2022-11-17T13:27:31.309Z,5.10
2022-11-17T13:30:27.123Z,5.10
2022-11-17T13:32:56.023Z,6.00
2022-11-17T13:35:26.959Z,8.30
2022-11-17T13:38:11.931Z,4.60
2022-11-17T13:40:41.856Z,5.90
2022-11-17T13:43:13.462Z,4.70
2022-11-17T13:45:40.056Z,5.40
2022-11-17T13:48:06.892Z,6.60
2022-11-17T13:50:36.355Z,8.10
2022-11-17T13:53:12.912Z,8.20
2022-11-17T13:55:46.981Z,7.70
2022-11-17T13:58:34.208Z,7.40
2022-11-17T14:01:01.753Z,8.40
2022-11-17T14:03:34.189Z,7.20
2022-11-17T14:06:00.922Z,8.60
2022-11-17T14:08:31.016Z,8.80
2022-11-17T14:11:09.668Z,11.50
2022-11-17T14:13:48.011Z,7.00
2022-11-17T14:16:38.989Z,8.00
2022-11-17T14:19:29.291Z,7.80
2022-11-17T14:22:04.022Z,9.80
2022-11-17T14:24:32.004Z,10.30
2022-11-17T14:26:59.229Z,7.60
2022-11-17T14:29:27.412Z,11.00
2022-11-17T14:31:58.575Z,14.90
2022-11-17T14:34:27.826Z,11.50
2022-11-17T14:36:56.045Z,14.60
2022-11-17T14:39:23.117Z,11.00
2022-11-17T14:41:50.785Z,17.80
2022-11-17T14:44:17.426Z,18.50
2022-11-17T14:46:44.161Z,12.90
2022-11-17T14:49:10.697Z,15.10
2022-11-17T14:51:37.125Z,12.50
2022-11-17T14:54:04.012Z,9.60
2022-11-17T14:56:30.512Z,10.20
2022-11-17T14:58:59.322Z,10.00
2022-11-17T15:01:28.356Z,9.40
2022-11-17T15:03:56.839Z,10.80
2022-11-17T15:06:24.266Z,9.80
2022-11-17T15:09:00.105Z,11.30
2022-11-17T15:11:29.305Z,8.80
2022-11-17T15:14:01.737Z,8.70
2022-11-17T15:16:28.441Z,8.80
2022-11-17T15:18:54.874Z,8.50
2022-11-17T15:21:21.617Z,9.60
2022-11-17T15:23:48.157Z,10.10
2022-11-17T15:26:17.122Z,19.40
2022-11-17T15:28:43.586Z,17.60
2022-11-17T15:31:12.882Z,15.50
2022-11-17T15:33:44.068Z,23.90
2022-11-17T15:36:13.694Z,26.60
2022-11-17T15:38:40.494Z,16.80
2022-11-17T15:41:09.461Z,14.30
2022-11-17T15:43:38.697Z,19.70
2022-11-17T15:46:11.062Z,19.60
2022-11-17T15:48:39.887Z,16.30
2022-11-17T15:51:07.211Z,15.10
2022-11-17T15:53:36.271Z,19.70
2022-11-17T15:56:08.124Z,15.10
2022-11-17T15:58:35.647Z,13.20
2022-11-17T16:01:15.459Z,12.90
2022-11-17T16:03:45.173Z,17.40
2022-11-17T16:06:12.381Z,13.40
2022-11-17T16:08:39.337Z,13.70
2022-11-17T16:11:06.980Z,13.70
2022-11-17T16:13:33.615Z,15.30
2022-11-17T16:16:00.181Z,18.10
2022-11-17T16:18:26.959Z,16.00
2022-11-17T16:20:53.487Z,14.40
2022-11-17T16:23:20.423Z,14.30
2022-11-17T16:25:48.782Z,13.70
2022-11-17T16:28:17.264Z,14.50
2022-11-17T16:30:43.684Z,16.80
2022-11-17T16:33:12.495Z,26.70
2022-11-17T16:35:40.436Z,25.00
2022-11-17T16:38:17.415Z,20.60
2022-11-17T16:40:44.696Z,17.90
2022-11-17T16:43:12.566Z,25.50
2022-11-17T16:45:45.031Z,27.90
2022-11-17T16:48:13.133Z,25.00
2022-11-17T16:50:41.087Z,22.50
2022-11-17T16:53:07.958Z,17.30
2022-11-17T16:55:37.944Z,24.50
2022-11-17T16:58:05.836Z,19.10
2022-11-17T17:00:33.166Z,25.80
2022-11-17T17:02:59.684Z,17.90
2022-11-17T17:05:27.011Z,17.40
2022-11-17T17:07:53.629Z,14.90
2022-11-17T17:10:20.008Z,16.10
2022-11-17T17:12:46.456Z,13.50
2022-11-17T17:15:13.059Z,19.40
2022-11-17T17:17:39.579Z,25.60
2022-11-17T17:20:06.831Z,23.00
2022-11-17T17:22:33.287Z,22.00
2022-11-17T17:24:59.706Z,23.50
2022-11-17T17:27:26.246Z,52.30
2022-11-17T17:29:52.888Z,29.40
2022-11-17T17:32:19.283Z,35.70
2022-11-17T17:34:45.667Z,25.00
2022-11-17T17:37:12.195Z,27.20
2022-11-17T17:39:38.731Z,20.60
2022-11-17T17:42:05.268Z,14.10
2022-11-17T17:44:31.694Z,15.40
2022-11-17T17:46:58.142Z,21.60
2022-11-17T17:49:24.704Z,17.50
2022-11-17T17:51:51.216Z,22.80
2022-11-17T17:54:19.932Z,18.30
2022-11-17T17:56:47.365Z,17.50
2022-11-17T17:59:14.162Z,16.30
2022-11-17T18:01:41.278Z,20.20
2022-11-17T18:04:12.669Z,25.80
2022-11-17T18:06:43.699Z,25.30
2022-11-17T18:09:11.020Z,16.40
2022-11-17T18:11:37.459Z,17.70
2022-11-17T18:14:04.620Z,18.20
2022-11-17T18:16:33.423Z,22.50
2022-11-17T18:19:02.314Z,19.70
2022-11-17T18:21:29.172Z,20.10
2022-11-17T18:23:56.793Z,28.40
2022-11-17T18:26:28.363Z,19.20
2022-11-17T18:31:24.613Z,28.80
2022-11-17T18:34:16.468Z,47.30
2022-11-17T18:36:42.907Z,28.60
2022-11-17T18:39:09.645Z,22.50
2022-11-17T18:41:36.701Z,22.60
2022-11-17T18:44:03.835Z,20.60
2022-11-17T18:46:32.117Z,20.40
2022-11-17T18:48:59.809Z,21.40
2022-11-17T18:51:31.049Z,45.00
2022-11-17T18:53:59.776Z,33.80
2022-11-17T18:56:37.135Z,20.10
2022-11-17T18:59:05.516Z,21.30
2022-11-17T19:01:32.087Z,28.70
2022-11-17T19:04:00.118Z,17.60
2022-11-17T19:06:26.988Z,21.90
2022-11-17T19:08:53.726Z,19.90
2022-11-17T19:11:21.900Z,25.40
2022-11-17T19:13:49.085Z,25.80
2022-11-17T19:16:24.102Z,20.70
2022-11-17T19:18:53.169Z,28.80
2022-11-17T19:21:22.288Z,21.20
2022-11-17T19:23:52.003Z,20.90
2022-11-17T19:26:21.732Z,19.30
2022-11-17T19:28:48.707Z,21.20
2022-11-17T19:31:18.838Z,15.00
2022-11-17T19:33:47.226Z,17.90
2022-11-17T19:36:35.440Z,14.20
2022-11-17T19:39:03.412Z,15.30
2022-11-17T19:41:32.556Z,14.90
2022-11-17T19:44:00.787Z,14.50
2022-11-17T19:46:29.085Z,16.20
2022-11-17T19:48:56.959Z,16.00
2022-11-17T19:51:26.435Z,14.60
2022-11-17T19:53:56.296Z,16.20
2022-11-17T19:56:24.644Z,14.70
2022-11-17T19:58:52.262Z,16.00
2022-11-17T20:01:27.817Z,18.40
2022-11-17T20:03:55.547Z,17.10
2022-11-17T20:06:25.281Z,13.90
2022-11-17T20:08:51.801Z,18.60
2022-11-17T20:11:27.023Z,37.50
2022-11-17T20:13:55.475Z,33.70
2022-11-17T20:16:25.334Z,21.20
2022-11-17T20:18:54.614Z,48.00
2022-11-17T20:21:22.022Z,32.80
2022-11-17T20:23:48.864Z,30.70
2022-11-17T20:26:19.059Z,17.00
2022-11-17T20:28:45.985Z,25.00
2022-11-17T20:31:15.527Z,21.50
2022-11-17T20:33:43.419Z,16.00
2022-11-17T20:36:15.526Z,15.90
2022-11-17T20:38:42.342Z,13.40
2022-11-17T20:41:08.983Z,13.20
2022-11-17T20:43:36.343Z,16.80
2022-11-17T20:46:03.687Z,13.50
2022-11-17T20:48:30.858Z,14.10
2022-11-17T20:51:02.732Z,14.40
2022-11-17T20:53:29.771Z,18.40
2022-11-17T20:55:57.832Z,14.10
2022-11-17T20:58:25.460Z,15.20
2022-11-17T21:00:52.892Z,13.60
2022-11-17T21:03:19.626Z,16.30
2022-11-17T21:05:59.184Z,14.50
2022-11-17T21:08:35.830Z,14.60
2022-11-17T21:11:05.235Z,13.30
2022-11-17T21:13:33.108Z,13.90
2022-11-17T21:16:14.745Z,13.80
2022-11-17T21:21:15.577Z,13.50
2022-11-17T21:23:43.453Z,15.70
2022-11-17T21:26:15.544Z,14.00
2022-11-17T21:28:41.941Z,14.40
2022-11-17T21:31:12.241Z,15.30
2022-11-17T21:33:40.250Z,17.00
2022-11-17T21:36:09.929Z,16.30
2022-11-17T21:38:37.224Z,15.80
2022-11-17T21:41:08.067Z,15.50
2022-11-17T21:43:39.294Z,14.60
2022-11-17T21:46:11.848Z,18.60
2022-11-17T21:48:38.750Z,15.80
2022-11-17T21:51:14.816Z,15.40
2022-11-17T21:53:41.265Z,15.90
2022-11-17T21:56:08.193Z,14.30
2022-11-17T21:58:34.837Z,15.80
2022-11-17T22:01:28.258Z,15.40
2022-11-17T22:03:55.114Z,15.10
2022-11-17T22:06:23.724Z,15.30
2022-11-17T22:08:51.102Z,14.30
2022-11-17T22:11:20.164Z,16.60
2022-11-17T22:13:46.610Z,16.00
2022-11-17T22:16:14.387Z,16.70
2022-11-17T22:18:41.441Z,16.40
2022-11-17T22:21:08.865Z,17.80
2022-11-17T22:23:35.687Z,18.30
2022-11-17T22:26:05.623Z,15.90
2022-11-17T22:28:32.375Z,17.10
2022-11-17T22:30:59.079Z,16.30
2022-11-17T22:33:25.629Z,17.60
2022-11-17T22:35:52.160Z,16.70
2022-11-17T22:38:18.699Z,16.60
2022-11-17T22:40:45.314Z,15.90
2022-11-17T22:43:15.292Z,15.40
2022-11-17T22:45:42.051Z,16.80
2022-11-17T22:48:08.803Z,17.10
2022-11-17T22:50:36.110Z,18.00
2022-11-17T22:53:02.676Z,18.50
2022-11-17T22:55:29.818Z,19.70
2022-11-17T22:57:56.366Z,18.60
2022-11-17T23:00:22.916Z,19.30
2022-11-17T23:02:49.613Z,19.50
2022-11-17T23:05:16.205Z,19.40
2022-11-17T23:07:42.876Z,18.20
2022-11-17T23:10:10.399Z,17.40
2022-11-17T23:12:37.038Z,18.20
2022-11-17T23:15:04.590Z,18.20
2022-11-17T23:17:31.246Z,16.70
2022-11-17T23:19:58.018Z,17.60
2022-11-17T23:22:24.733Z,17.80
2022-11-17T23:24:51.276Z,26.60
2022-11-17T23:27:17.690Z,20.30
2022-11-17T23:29:44.101Z,19.70
2022-11-17T23:32:10.556Z,18.70
2022-11-17T23:34:37.026Z,19.30
2022-11-17T23:37:04.148Z,20.40
2022-11-17T23:39:30.786Z,18.70
2022-11-17T23:41:57.259Z,16.80
2022-11-17T23:44:23.690Z,16.40
2022-11-17T23:46:50.448Z,15.80
2022-11-17T23:49:17.045Z,16.00
2022-11-17T23:51:43.635Z,19.70
2022-11-17T23:54:13.651Z,16.40
2022-11-17T23:56:40.703Z,15.30
2022-11-17T23:59:07.554Z,17.00
